sensor_id;sensor_type;location;lat;lon;timestamp;pressure;altitude;pressure_sealevel;temperature;humidity
29331;BME280;16331;52.528;13.342;2022-09-28T00:01:25;158672.44;;;10.78;100.00
29331;BME280;16331;52.528;13.342;2022-09-28T00:03:57;158701.22;;;10.89;100.00
29331;BME280;16331;52.528;13.342;2022-09-28T00:06:25;158673.84;;;10.79;100.00
29331;BME280;16331;52.528;13.342;2022-09-28T00:08:55;158664.22;;;10.75;100.00
29331;BME280;16331;52.528;13.342;2022-09-28T00:11:24;158642.25;;;10.67;100.00
29331;BME280;16331;52.528;13.342;2022-09-28T00:13:58;158642.25;;;10.67;100.00
29331;BME280;16331;52.528;13.342;2022-09-28T00:16:29;158642.25;;;10.67;100.00
29331;BME280;16331;52.528;13.342;2022-09-28T00:18:56;158656.00;;;10.72;100.00
29331;BME280;16331;52.528;13.342;2022-09-28T00:21:26;158682.06;;;10.82;100.00
29331;BME280;16331;52.528;13.342;2022-09-28T00:23:55;158661.44;;;10.74;100.00
29331;BME280;16331;52.528;13.342;2022-09-28T00:26:42;158631.25;;;10.63;100.00
29331;BME280;16331;52.528;13.342;2022-09-28T00:29:18;158609.31;;;10.55;100.00
29331;BME280;16331;52.528;13.342;2022-09-28T00:31:45;158583.25;;;10.46;100.00
29331;BME280;16331;52.528;13.342;2022-09-28T00:34:13;158592.84;;;10.49;100.00
29331;BME280;16331;52.528;13.342;2022-09-28T00:36:42;158587.34;;;10.47;100.00
29331;BME280;16331;52.528;13.342;2022-09-28T00:39:09;158602.47;;;10.53;100.00
29331;BME280;16331;52.528;13.342;2022-09-28T00:41:36;158584.63;;;10.46;100.00
29331;BME280;16331;52.528;13.342;2022-09-28T00:46:54;158632.66;;;10.64;100.00
29331;BME280;16331;52.528;13.342;2022-09-28T00:52:21;158642.25;;;10.67;100.00
29331;BME280;16331;52.528;13.342;2022-09-28T00:54:51;158658.72;;;10.73;100.00
29331;BME280;16331;52.528;13.342;2022-09-28T00:57:22;158687.50;;;10.84;100.00
29331;BME280;16331;52.528;13.342;2022-09-28T00:59:51;158651.88;;;10.71;100.00
29331;BME280;16331;52.528;13.342;2022-09-28T01:02:19;158680.66;;;10.81;100.00
29331;BME280;16331;52.528;13.342;2022-09-28T01:04:46;158702.63;;;10.89;100.00
29331;BME280;16331;52.528;13.342;2022-09-28T01:07:14;158712.25;;;10.93;100.00
29331;BME280;16331;52.528;13.342;2022-09-28T01:09:42;158675.16;;;10.79;100.00
29331;BME280;16331;52.528;13.342;2022-09-28T01:12:10;158691.63;;;10.85;100.00
29331;BME280;16331;52.528;13.342;2022-09-28T01:14:39;158639.50;;;10.66;100.00
29331;BME280;16331;52.528;13.342;2022-09-28T01:25:52;158606.59;;;10.54;100.00
29331;BME280;16331;52.528;13.342;2022-09-28T01:28:28;158629.94;;;10.63;100.00
29331;BME280;16331;52.528;13.342;2022-09-28T01:31:05;158673.84;;;10.79;100.00
29331;BME280;16331;52.528;13.342;2022-09-28T01:33:53;158617.53;;;10.58;100.00
29331;BME280;16331;52.528;13.342;2022-09-28T01:36:41;158583.25;;;10.46;100.00
29331;BME280;16331;52.528;13.342;2022-09-28T01:39:14;158565.41;;;10.39;100.00
29331;BME280;16331;52.528;13.342;2022-09-28T01:41:42;158591.47;;;10.49;100.00
29331;BME280;16331;52.528;13.342;2022-09-28T01:44:14;158634.03;;;10.64;100.00
29331;BME280;16331;52.528;13.342;2022-09-28T01:46:47;158650.50;;;10.70;100.00
29331;BME280;16331;52.528;13.342;2022-09-28T01:49:18;158657.31;;;10.73;100.00
29331;BME280;16331;52.528;13.342;2022-09-28T01:51:59;158693.00;;;10.86;100.00
29331;BME280;16331;52.528;13.342;2022-09-28T01:54:42;158661.44;;;10.74;100.00
29331;BME280;16331;52.528;13.342;2022-09-28T01:57:23;158616.19;;;10.58;100.00
29331;BME280;16331;52.528;13.342;2022-09-28T02:00:05;158638.16;;;10.66;100.00
29331;BME280;16331;52.528;13.342;2022-09-28T02:02:38;158629.94;;;10.63;100.00
29331;BME280;16331;52.528;13.342;2022-09-28T02:05:34;158587.34;;;10.47;100.00
29331;BME280;16331;52.528;13.342;2022-09-28T02:11:23;158535.25;;;10.28;100.00
29331;BME280;16331;52.528;13.342;2022-09-28T02:14:26;158539.34;;;10.30;100.00
29331;BME280;16331;52.528;13.342;2022-09-28T02:16:48;158554.47;;;10.35;100.00
29331;BME280;16331;52.528;13.342;2022-09-28T02:19:18;158601.09;;;10.52;100.00
29331;BME280;16331;52.528;13.342;2022-09-28T02:21:53;158606.59;;;10.54;100.00
29331;BME280;16331;52.528;13.342;2022-09-28T02:24:34;158599.69;;;10.52;100.00
29331;BME280;16331;52.528;13.342;2022-09-28T02:29:36;158557.19;;;10.36;100.00
29331;BME280;16331;52.528;13.342;2022-09-28T02:32:02;158573.63;;;10.42;100.00
29331;BME280;16331;52.528;13.342;2022-09-28T02:34:28;158546.25;;;10.32;100.00
29331;BME280;16331;52.528;13.342;2022-09-28T02:36:54;158535.25;;;10.28;100.00
29331;BME280;16331;52.528;13.342;2022-09-28T02:39:20;158553.06;;;10.35;100.00
29331;BME280;16331;52.528;13.342;2022-09-28T02:42:18;158602.47;;;10.53;100.00
29331;BME280;16331;52.528;13.342;2022-09-28T02:53:28;158592.84;;;10.49;100.00
29331;BME280;16331;52.528;13.342;2022-09-28T02:56:09;158572.28;;;10.42;100.00
29331;BME280;16331;52.528;13.342;2022-09-28T02:58:57;158581.91;;;10.45;100.00
29331;BME280;16331;52.528;13.342;2022-09-28T03:01:36;158554.47;;;10.35;100.00
29331;BME280;16331;52.528;13.342;2022-09-28T03:06:59;158522.91;;;10.23;100.00
29331;BME280;16331;52.528;13.342;2022-09-28T03:09:42;158507.78;;;10.18;100.00
29331;BME280;16331;52.528;13.342;2022-09-28T03:12:12;158502.34;;;10.16;100.00
29331;BME280;16331;52.528;13.342;2022-09-28T03:14:40;158455.63;;;9.99;100.00
29331;BME280;16331;52.528;13.342;2022-09-28T03:17:06;158452.91;;;9.98;100.00
29331;BME280;16331;52.528;13.342;2022-09-28T03:19:33;158406.31;;;9.81;100.00
29331;BME280;16331;52.528;13.342;2022-09-28T03:22:01;158374.78;;;9.69;100.00
29331;BME280;16331;52.528;13.342;2022-09-28T03:24:27;158437.81;;;9.92;100.00
29331;BME280;16331;52.528;13.342;2022-09-28T03:26:53;158383.00;;;9.72;100.00
29331;BME280;16331;52.528;13.342;2022-09-28T03:29:19;158333.63;;;9.54;100.00
29331;BME280;16331;52.528;13.342;2022-09-28T03:31:46;158313.09;;;9.47;100.00
29331;BME280;16331;52.528;13.342;2022-09-28T03:34:12;158351.47;;;9.61;100.00
29331;BME280;16331;52.528;13.342;2022-09-28T03:36:38;158363.78;;;9.65;100.00
29331;BME280;16331;52.528;13.342;2022-09-28T03:39:04;158392.59;;;9.76;100.00
29331;BME280;16331;52.528;13.342;2022-09-28T03:41:30;158363.78;;;9.65;100.00
29331;BME280;16331;52.528;13.342;2022-09-28T03:43:56;158389.81;;;9.75;100.00
29331;BME280;16331;52.528;13.342;2022-09-28T03:46:22;158454.31;;;9.98;100.00
29331;BME280;16331;52.528;13.342;2022-09-28T03:48:48;158513.28;;;10.20;100.00
29331;BME280;16331;52.528;13.342;2022-09-28T03:51:14;158472.13;;;10.05;100.00
29331;BME280;16331;52.528;13.342;2022-09-28T03:53:41;158506.47;;;10.17;100.00
29331;BME280;16331;52.528;13.342;2022-09-28T03:56:12;158463.84;;;10.02;100.00
29331;BME280;16331;52.528;13.342;2022-09-28T03:58:38;158539.34;;;10.30;100.00
29331;BME280;16331;52.528;13.342;2022-09-28T04:01:07;158542.13;;;10.31;100.00
29331;BME280;16331;52.528;13.342;2022-09-28T04:03:33;158492.75;;;10.12;100.00
29331;BME280;16331;52.528;13.342;2022-09-28T04:06:00;158485.84;;;10.10;100.00
29331;BME280;16331;52.528;13.342;2022-09-28T04:08:26;158418.66;;;9.85;100.00
29331;BME280;16331;52.528;13.342;2022-09-28T04:10:56;158393.94;;;9.76;100.00
29331;BME280;16331;52.528;13.342;2022-09-28T04:13:23;158388.50;;;9.74;100.00
29331;BME280;16331;52.528;13.342;2022-09-28T04:15:53;158381.59;;;9.72;100.00
29331;BME280;16331;52.528;13.342;2022-09-28T04:18:20;158373.41;;;9.69;100.00
29331;BME280;16331;52.528;13.342;2022-09-28T04:20:46;158372.00;;;9.68;100.00
29331;BME280;16331;52.528;13.342;2022-09-28T04:23:14;158378.88;;;9.71;100.00
29331;BME280;16331;52.528;13.342;2022-09-28T04:25:40;158404.94;;;9.80;100.00
29331;BME280;16331;52.528;13.342;2022-09-28T04:28:07;158463.84;;;10.02;100.00
29331;BME280;16331;52.528;13.342;2022-09-28T04:30:53;158462.53;;;10.01;100.00
29331;BME280;16331;52.528;13.342;2022-09-28T04:33:19;158433.69;;;9.91;100.00
29331;BME280;16331;52.528;13.342;2022-09-28T04:35:45;158461.13;;;10.01;100.00
29331;BME280;16331;52.528;13.342;2022-09-28T04:38:11;158483.13;;;10.09;100.00
29331;BME280;16331;52.528;13.342;2022-09-28T04:40:37;158474.84;;;10.06;100.00
29331;BME280;16331;52.528;13.342;2022-09-28T04:43:03;158444.69;;;9.95;100.00
29331;BME280;16331;52.528;13.342;2022-09-28T04:45:29;158496.84;;;10.14;100.00
29331;BME280;16331;52.528;13.342;2022-09-28T04:47:55;158527.03;;;10.25;100.00
29331;BME280;16331;52.528;13.342;2022-09-28T04:50:21;158553.06;;;10.35;100.00
29331;BME280;16331;52.528;13.342;2022-09-28T04:52:47;158506.47;;;10.17;100.00
29331;BME280;16331;52.528;13.342;2022-09-28T04:55:14;158532.50;;;10.27;100.00
29331;BME280;16331;52.528;13.342;2022-09-28T04:57:41;158524.28;;;10.24;100.00
29331;BME280;16331;52.528;13.342;2022-09-28T05:00:08;158522.91;;;10.23;100.00
29331;BME280;16331;52.528;13.342;2022-09-28T05:02:35;158502.34;;;10.16;100.00
29331;BME280;16331;52.528;13.342;2022-09-28T05:05:01;158516.06;;;10.21;100.00
29331;BME280;16331;52.528;13.342;2022-09-28T05:07:28;158480.41;;;10.08;100.00
29331;BME280;16331;52.528;13.342;2022-09-28T05:09:55;158465.25;;;10.02;100.00
29331;BME280;16331;52.528;13.342;2022-09-28T05:12:21;158463.84;;;10.02;100.00
29331;BME280;16331;52.528;13.342;2022-09-28T05:14:47;158459.75;;;10.00;100.00
29331;BME280;16331;52.528;13.342;2022-09-28T05:17:13;158443.31;;;9.94;100.00
29331;BME280;16331;52.528;13.342;2022-09-28T05:19:39;158458.41;;;10.00;100.00
29331;BME280;16331;52.528;13.342;2022-09-28T05:22:05;158455.63;;;9.99;100.00
29331;BME280;16331;52.528;13.342;2022-09-28T05:24:36;158472.13;;;10.05;100.00
29331;BME280;16331;52.528;13.342;2022-09-28T05:27:02;158463.84;;;10.02;100.00
29331;BME280;16331;52.528;13.342;2022-09-28T05:29:28;158461.13;;;10.01;100.00
29331;BME280;16331;52.528;13.342;2022-09-28T05:31:54;158437.81;;;9.92;100.00
29331;BME280;16331;52.528;13.342;2022-09-28T05:34:20;158418.66;;;9.85;100.00
29331;BME280;16331;52.528;13.342;2022-09-28T05:36:46;158459.75;;;10.00;100.00
29331;BME280;16331;52.528;13.342;2022-09-28T05:39:12;158469.34;;;10.04;100.00
29331;BME280;16331;52.528;13.342;2022-09-28T05:41:38;158422.75;;;9.87;100.00
29331;BME280;16331;52.528;13.342;2022-09-28T05:44:04;158498.25;;;10.14;100.00
29331;BME280;16331;52.528;13.342;2022-09-28T05:46:30;158461.13;;;10.01;100.00
29331;BME280;16331;52.528;13.342;2022-09-28T05:48:56;158468.03;;;10.03;100.00
29331;BME280;16331;52.528;13.342;2022-09-28T05:51:22;158499.56;;;10.15;100.00
29331;BME280;16331;52.528;13.342;2022-09-28T05:53:54;158472.13;;;10.05;100.00
29331;BME280;16331;52.528;13.342;2022-09-28T05:56:20;158455.63;;;9.99;100.00
29331;BME280;16331;52.528;13.342;2022-09-28T05:58:46;158547.56;;;10.33;100.00
29331;BME280;16331;52.528;13.342;2022-09-28T06:01:12;158561.28;;;10.38;100.00
29331;BME280;16331;52.528;13.342;2022-09-28T06:03:38;158592.84;;;10.49;100.00
29331;BME280;16331;52.528;13.342;2022-09-28T06:06:04;158625.75;;;10.61;100.00
29331;BME280;16331;52.528;13.342;2022-09-28T06:08:31;158675.16;;;10.79;100.00
29331;BME280;16331;52.528;13.342;2022-09-28T06:11:01;158669.66;;;10.77;100.00
29331;BME280;16331;52.528;13.342;2022-09-28T06:13:28;158677.94;;;10.80;100.00
29331;BME280;16331;52.528;13.342;2022-09-28T06:15:54;158695.78;;;10.87;100.00
29331;BME280;16331;52.528;13.342;2022-09-28T06:18:20;158675.16;;;10.79;100.00
29331;BME280;16331;52.528;13.342;2022-09-28T06:20:46;158668.34;;;10.77;100.00
29331;BME280;16331;52.528;13.342;2022-09-28T06:23:13;158668.34;;;10.77;100.00
29331;BME280;16331;52.528;13.342;2022-09-28T06:25:39;158695.78;;;10.87;100.00
29331;BME280;16331;52.528;13.342;2022-09-28T06:28:11;158738.31;;;11.02;100.00
29331;BME280;16331;52.528;13.342;2022-09-28T06:30:38;158789.06;;;11.21;100.00
29331;BME280;16331;52.528;13.342;2022-09-28T06:33:06;158882.44;;;11.55;100.00
29331;BME280;16331;52.528;13.342;2022-09-28T06:35:33;159066.56;;;12.22;100.00
29331;BME280;16331;52.528;13.342;2022-09-28T06:38:00;159087.16;;;12.30;100.00
29331;BME280;16331;52.528;13.342;2022-09-28T06:40:26;159078.91;;;12.27;100.00
29331;BME280;16331;52.528;13.342;2022-09-28T06:43:01;158988.25;;;11.94;100.00
29331;BME280;16331;52.528;13.342;2022-09-28T06:45:28;158999.22;;;11.98;100.00
29331;BME280;16331;52.528;13.342;2022-09-28T06:47:55;159050.09;;;12.16;100.00
29331;BME280;16331;52.528;13.342;2022-09-28T06:50:26;159051.44;;;12.17;100.00
29331;BME280;16331;52.528;13.342;2022-09-28T06:52:53;159043.19;;;12.14;100.00
29331;BME280;16331;52.528;13.342;2022-09-28T06:55:21;158984.16;;;11.92;100.00
29331;BME280;16331;52.528;13.342;2022-09-28T06:57:48;158870.09;;;11.50;100.00
29331;BME280;16331;52.528;13.342;2022-09-28T07:00:21;158859.09;;;11.46;100.00
29331;BME280;16331;52.528;13.342;2022-09-28T07:02:47;158868.72;;;11.50;100.00
29331;BME280;16331;52.528;13.342;2022-09-28T07:05:13;158853.59;;;11.44;100.00
29331;BME280;16331;52.528;13.342;2022-09-28T07:07:39;158887.97;;;11.57;100.00
29331;BME280;16331;52.528;13.342;2022-09-28T07:10:10;159012.97;;;12.03;100.00
29331;BME280;16331;52.528;13.342;2022-09-28T07:12:36;159034.94;;;12.11;100.00
29331;BME280;16331;52.528;13.342;2022-09-28T07:15:03;159083.03;;;12.28;100.00
29331;BME280;16331;52.528;13.342;2022-09-28T07:17:29;159149.00;;;12.52;100.00
29331;BME280;16331;52.528;13.342;2022-09-28T07:19:56;159180.63;;;12.64;100.00
29331;BME280;16331;52.528;13.342;2022-09-28T07:22:23;159162.75;;;12.57;100.00
29331;BME280;16331;52.528;13.342;2022-09-28T07:24:49;159234.25;;;12.83;100.00
29331;BME280;16331;52.528;13.342;2022-09-28T07:27:15;159336.00;;;13.21;100.00
29331;BME280;16331;52.528;13.342;2022-09-28T07:29:41;159308.53;;;13.11;100.00
29331;BME280;16331;52.528;13.342;2022-09-28T07:32:07;159330.53;;;13.19;100.00
29331;BME280;16331;52.528;13.342;2022-09-28T07:34:34;159243.81;;;12.87;100.00
29331;BME280;16331;52.528;13.342;2022-09-28T07:37:09;159171.00;;;12.60;100.00
29331;BME280;16331;52.528;13.342;2022-09-28T07:39:36;159165.47;;;12.58;100.00
29331;BME280;16331;52.528;13.342;2022-09-28T07:42:23;159109.16;;;12.38;100.00
29331;BME280;16331;52.528;13.342;2022-09-28T07:44:50;159220.47;;;12.78;100.00
29331;BME280;16331;52.528;13.342;2022-09-28T07:47:16;159285.13;;;13.02;100.00
29331;BME280;16331;52.528;13.342;2022-09-28T07:49:43;159261.69;;;12.93;100.00
29331;BME280;16331;52.528;13.342;2022-09-28T07:52:09;159269.94;;;12.96;100.00
29331;BME280;16331;52.528;13.342;2022-09-28T07:54:37;159252.13;;;12.90;100.00
29331;BME280;16331;52.528;13.342;2022-09-28T07:57:04;159235.56;;;12.84;100.00
29331;BME280;16331;52.528;13.342;2022-09-28T07:59:31;159279.56;;;13.00;100.00
29331;BME280;16331;52.528;13.342;2022-09-28T08:01:58;159297.50;;;13.06;100.00
29331;BME280;16331;52.528;13.342;2022-09-28T08:04:24;159308.53;;;13.11;100.00
29331;BME280;16331;52.528;13.342;2022-09-28T08:06:50;159282.41;;;13.01;100.00
29331;BME280;16331;52.528;13.342;2022-09-28T08:09:16;159210.84;;;12.75;100.00
29331;BME280;16331;52.528;13.342;2022-09-28T08:11:42;159172.38;;;12.61;100.00
29331;BME280;16331;52.528;13.342;2022-09-28T08:14:08;159279.56;;;13.00;100.00
29331;BME280;16331;52.528;13.342;2022-09-28T08:16:35;159334.66;;;13.20;100.00
29331;BME280;16331;52.528;13.342;2022-09-28T08:19:01;159352.53;;;13.27;100.00
29331;BME280;16331;52.528;13.342;2022-09-28T08:21:27;159303.03;;;13.08;100.00
29331;BME280;16331;52.528;13.342;2022-09-28T08:24:14;159271.34;;;12.97;100.00
29331;BME280;16331;52.528;13.342;2022-09-28T08:26:40;159345.63;;;13.24;100.00
29331;BME280;16331;52.528;13.342;2022-09-28T08:29:08;159430.94;;;13.55;100.00
29331;BME280;16331;52.528;13.342;2022-09-28T08:31:34;159470.84;;;13.70;100.00
29331;BME280;16331;52.528;13.342;2022-09-28T08:34:01;159450.16;;;13.62;100.00
29331;BME280;16331;52.528;13.342;2022-09-28T08:36:33;159327.75;;;13.18;100.00
29331;BME280;16331;52.528;13.342;2022-09-28T08:38:59;159304.41;;;13.09;100.00
29331;BME280;16331;52.528;13.342;2022-09-28T08:41:47;159285.13;;;13.02;100.00
29331;BME280;16331;52.528;13.342;2022-09-28T08:44:17;159208.13;;;12.74;100.00
29331;BME280;16331;52.528;13.342;2022-09-28T08:46:55;159245.22;;;12.87;100.00
29331;BME280;16331;52.528;13.342;2022-09-28T08:49:35;159322.28;;;13.16;100.00
29331;BME280;16331;52.528;13.342;2022-09-28T08:52:18;159404.78;;;13.46;100.00
29331;BME280;16331;52.528;13.342;2022-09-28T08:55:07;159366.28;;;13.32;100.00
29331;BME280;16331;52.528;13.342;2022-09-28T08:57:57;159370.44;;;13.33;100.00
29331;BME280;16331;52.528;13.342;2022-09-28T09:00:44;159341.50;;;13.23;100.00
29331;BME280;16331;52.528;13.342;2022-09-28T09:03:14;159315.38;;;13.13;100.00
29331;BME280;16331;52.528;13.342;2022-09-28T09:14:13;159491.44;;;13.77;100.00
29331;BME280;16331;52.528;13.342;2022-09-28T09:19:54;159417.16;;;13.50;100.00
29331;BME280;16331;52.528;13.342;2022-09-28T09:22:40;159461.19;;;13.66;100.00
29331;BME280;16331;52.528;13.342;2022-09-28T09:25:33;159502.44;;;13.81;100.00
29331;BME280;16331;52.528;13.342;2022-09-28T09:41:10;159838.41;;;15.04;100.00
29331;BME280;16331;52.528;13.342;2022-09-28T09:50:07;159910.06;;;15.30;100.00
29331;BME280;16331;52.528;13.342;2022-09-28T09:52:51;159783.34;;;14.84;100.00
29331;BME280;16331;52.528;13.342;2022-09-28T09:55:43;160007.91;;;15.65;100.00
29331;BME280;16331;52.528;13.342;2022-09-28T09:58:25;159947.28;;;15.43;100.00
29331;BME280;16331;52.528;13.342;2022-09-28T10:00:55;160080.97;;;15.92;100.00
29331;BME280;16331;52.528;13.342;2022-09-28T10:03:27;159918.31;;;15.33;100.00
29331;BME280;16331;52.528;13.342;2022-09-28T10:06:04;159746.13;;;14.70;100.00
29331;BME280;16331;52.528;13.342;2022-09-28T10:08:37;159736.50;;;14.67;100.00
29331;BME280;16331;52.528;13.342;2022-09-28T10:11:11;159742.00;;;14.69;100.00
29331;BME280;16331;52.528;13.342;2022-09-28T10:13:39;159662.16;;;14.39;100.00
29331;BME280;16331;52.528;13.342;2022-09-28T10:16:06;159740.63;;;14.68;100.00
29331;BME280;16331;52.528;13.342;2022-09-28T10:18:33;159722.72;;;14.62;100.00
29331;BME280;16331;52.528;13.342;2022-09-28T10:21:00;159623.63;;;14.25;100.00
29331;BME280;16331;52.528;13.342;2022-09-28T10:23:29;159517.59;;;13.87;100.00
29331;BME280;16331;52.528;13.342;2022-09-28T10:26:01;159527.22;;;13.90;100.00
29331;BME280;16331;52.528;13.342;2022-09-28T10:28:52;159518.97;;;13.87;100.00
29331;BME280;16331;52.528;13.342;2022-09-28T10:31:45;159492.84;;;13.78;100.00
29331;BME280;16331;52.528;13.342;2022-09-28T10:34:15;159551.97;;;13.99;100.00
29331;BME280;16331;52.528;13.342;2022-09-28T10:36:50;159528.63;;;13.91;100.00
29331;BME280;16331;52.528;13.342;2022-09-28T10:39:44;159615.31;;;14.22;100.00
29331;BME280;16331;52.528;13.342;2022-09-28T10:42:16;159598.81;;;14.16;100.00
29331;BME280;16331;52.528;13.342;2022-09-28T10:45:00;159521.72;;;13.88;100.00
29331;BME280;16331;52.528;13.342;2022-09-28T10:47:30;159395.16;;;13.42;100.00
29331;BME280;16331;52.528;13.342;2022-09-28T10:49:57;159496.97;;;13.79;100.00
29331;BME280;16331;52.528;13.342;2022-09-28T10:52:39;159521.72;;;13.88;100.00
29331;BME280;16331;52.528;13.342;2022-09-28T10:55:28;159600.16;;;14.17;100.00
29331;BME280;16331;52.528;13.342;2022-09-28T10:57:57;159546.47;;;13.97;100.00
29331;BME280;16331;52.528;13.342;2022-09-28T11:00:41;159529.97;;;13.91;100.00
29331;BME280;16331;52.528;13.342;2022-09-28T11:03:25;159450.16;;;13.62;100.00
29331;BME280;16331;52.528;13.342;2022-09-28T11:06:13;159370.44;;;13.33;100.00
29331;BME280;16331;52.528;13.342;2022-09-28T11:08:43;159298.91;;;13.07;100.00
29331;BME280;16331;52.528;13.342;2022-09-28T11:11:12;159267.22;;;12.95;100.00
29331;BME280;16331;52.528;13.342;2022-09-28T11:13:59;159318.16;;;13.14;100.00
29331;BME280;16331;52.528;13.342;2022-09-28T11:16:34;159331.88;;;13.19;100.00
29331;BME280;16331;52.528;13.342;2022-09-28T11:21:45;159223.22;;;12.79;100.00
29331;BME280;16331;52.528;13.342;2022-09-28T11:26:46;159329.16;;;13.18;100.00
29331;BME280;16331;52.528;13.342;2022-09-28T11:29:22;159274.13;;;12.98;100.00
29331;BME280;16331;52.528;13.342;2022-09-28T11:31:49;159281.03;;;13.00;100.00
29331;BME280;16331;52.528;13.342;2022-09-28T11:34:26;159422.69;;;13.52;100.00
29331;BME280;16331;52.528;13.342;2022-09-28T11:50:57;159596.03;;;14.15;100.00
29331;BME280;16331;52.528;13.342;2022-09-28T11:53:39;159496.97;;;13.79;100.00
29331;BME280;16331;52.528;13.342;2022-09-28T11:58:54;159457.06;;;13.65;100.00
29331;BME280;16331;52.528;13.342;2022-09-28T12:04:39;159446.03;;;13.61;100.00
29331;BME280;16331;52.528;13.342;2022-09-28T12:08:12;159378.66;;;13.36;100.00
29331;BME280;16331;52.528;13.342;2022-09-28T12:10:30;159340.13;;;13.22;100.00
29331;BME280;16331;52.528;13.342;2022-09-28T12:13:05;159286.53;;;13.02;100.00
29331;BME280;16331;52.528;13.342;2022-09-28T12:24:15;159327.75;;;13.18;100.00
29331;BME280;16331;52.528;13.342;2022-09-28T12:29:45;159230.13;;;12.82;100.00
29331;BME280;16331;52.528;13.342;2022-09-28T12:32:37;159348.41;;;13.25;100.00
29331;BME280;16331;52.528;13.342;2022-09-28T12:41:29;159359.38;;;13.29;100.00
29331;BME280;16331;52.528;13.342;2022-09-28T12:50:17;159469.44;;;13.69;100.00
29331;BME280;16331;52.528;13.342;2022-09-28T12:55:51;159596.03;;;14.15;100.00
29331;BME280;16331;52.528;13.342;2022-09-28T13:01:24;159532.75;;;13.92;100.00
29331;BME280;16331;52.528;13.342;2022-09-28T13:04:21;159640.13;;;14.31;100.00
29331;BME280;16331;52.528;13.342;2022-09-28T13:10:17;159622.22;;;14.25;100.00
29331;BME280;16331;52.528;13.342;2022-09-28T13:13:21;159721.38;;;14.61;100.00
29331;BME280;16331;52.528;13.342;2022-09-28T13:24:52;160091.97;;;15.96;93.05
29331;BME280;16331;52.528;13.342;2022-09-28T13:27:30;160249.25;;;16.53;87.93
29331;BME280;16331;52.528;13.342;2022-09-28T13:30:04;160641.22;;;17.96;81.61
29331;BME280;16331;52.528;13.342;2022-09-28T13:32:33;161046.16;;;19.43;67.83
29331;BME280;16331;52.528;13.342;2022-09-28T13:35:11;161094.53;;;19.60;64.48
29331;BME280;16331;52.528;13.342;2022-09-28T13:37:38;161383.69;;;20.65;60.34
29331;BME280;16331;52.528;13.342;2022-09-28T13:40:14;161184.41;;;19.93;61.41
29331;BME280;16331;52.528;13.342;2022-09-28T13:45:33;161639.84;;;21.58;51.56
29331;BME280;16331;52.528;13.342;2022-09-28T13:48:20;161753.53;;;21.99;49.31
29331;BME280;16331;52.528;13.342;2022-09-28T14:00:06;161011.59;;;19.30;57.38
29331;BME280;16331;52.528;13.342;2022-09-28T14:02:47;161691.19;;;21.77;49.14
29331;BME280;16331;52.528;13.342;2022-09-28T14:05:51;162000.25;;;22.88;44.38
29331;BME280;16331;52.528;13.342;2022-09-28T14:08:35;162474.84;;;24.60;41.17
29331;BME280;16331;52.528;13.342;2022-09-28T14:16:37;162083.44;;;23.19;42.13
29331;BME280;16331;52.528;13.342;2022-09-28T14:19:22;161556.78;;;21.28;48.13
29331;BME280;16331;52.528;13.342;2022-09-28T14:25:10;161739.66;;;21.94;46.17
29331;BME280;16331;52.528;13.342;2022-09-28T14:30:52;160841.53;;;18.68;60.71
29331;BME280;16331;52.528;13.342;2022-09-28T14:33:27;160715.78;;;18.23;63.35
29331;BME280;16331;52.528;13.342;2022-09-28T14:36:05;160639.81;;;17.95;68.51
29331;BME280;16331;52.528;13.342;2022-09-28T14:41:35;160323.75;;;16.80;72.82
29331;BME280;16331;52.528;13.342;2022-09-28T14:44:10;160424.44;;;17.17;71.72
29331;BME280;16331;52.528;13.342;2022-09-28T14:46:39;160489.28;;;17.41;71.89
29331;BME280;16331;52.528;13.342;2022-09-28T14:51:59;160394.09;;;17.06;74.93
29331;BME280;16331;52.528;13.342;2022-09-28T14:54:58;160254.75;;;16.55;79.58
29331;BME280;16331;52.528;13.342;2022-09-28T14:57:28;160243.72;;;16.51;81.77
29331;BME280;16331;52.528;13.342;2022-09-28T15:00:26;160337.53;;;16.85;81.74
29331;BME280;16331;52.528;13.342;2022-09-28T15:03:03;160323.75;;;16.80;82.37
29331;BME280;16331;52.528;13.342;2022-09-28T15:05:44;160439.59;;;17.22;79.64
29331;BME280;16331;52.528;13.342;2022-09-28T15:08:18;160429.97;;;17.19;79.82
29331;BME280;16331;52.528;13.342;2022-09-28T15:10:47;160420.31;;;17.15;78.84
29331;BME280;16331;52.528;13.342;2022-09-28T15:13:25;160372.03;;;16.98;82.26
29331;BME280;16331;52.528;13.342;2022-09-28T15:15:55;160330.63;;;16.83;83.74
29331;BME280;16331;52.528;13.342;2022-09-28T15:21:36;160162.28;;;16.22;87.62
29331;BME280;16331;52.528;13.342;2022-09-28T15:24:32;160043.75;;;15.78;89.63
29331;BME280;16331;52.528;13.342;2022-09-28T15:27:19;159921.06;;;15.34;92.30
29331;BME280;16331;52.528;13.342;2022-09-28T15:29:58;159865.97;;;15.14;95.78
29331;BME280;16331;52.528;13.342;2022-09-28T15:32:27;159865.97;;;15.14;97.00
29331;BME280;16331;52.528;13.342;2022-09-28T15:34:54;159802.59;;;14.91;98.97
29331;BME280;16331;52.528;13.342;2022-09-28T15:37:27;159831.53;;;15.01;99.20
29331;BME280;16331;52.528;13.342;2022-09-28T15:39:55;159688.31;;;14.49;100.00
29331;BME280;16331;52.528;13.342;2022-09-28T15:42:23;159641.50;;;14.32;100.00